sensor_id;sensor_type;location;lat;lon;timestamp;P1;durP1;ratioP1;P2;durP2;ratioP2
1402;SDS011;696;48.546;9.896;2023-04-12T00:02:10;6.95;;;2.63;;
1402;SDS011;696;48.546;9.896;2023-04-12T00:04:35;4.68;;;2.75;;
1402;SDS011;696;48.546;9.896;2023-04-12T00:07:01;5.53;;;2.67;;
1402;SDS011;696;48.546;9.896;2023-04-12T00:09:29;5.53;;;2.47;;
1402;SDS011;696;48.546;9.896;2023-04-12T00:11:55;4.57;;;2.63;;
1402;SDS011;696;48.546;9.896;2023-04-12T00:14:26;6.20;;;2.72;;
1402;SDS011;696;48.546;9.896;2023-04-12T00:16:52;4.30;;;2.75;;
1402;SDS011;696;48.546;9.896;2023-04-12T00:19:18;8.77;;;2.95;;
1402;SDS011;696;48.546;9.896;2023-04-12T00:21:43;4.65;;;2.72;;
1402;SDS011;696;48.546;9.896;2023-04-12T00:24:09;6.15;;;2.42;;
1402;SDS011;696;48.546;9.896;2023-04-12T00:26:35;13.13;;;2.70;;
1402;SDS011;696;48.546;9.896;2023-04-12T00:29:03;5.25;;;2.67;;
1402;SDS011;696;48.546;9.896;2023-04-12T00:31:28;4.55;;;2.65;;
1402;SDS011;696;48.546;9.896;2023-04-12T00:33:53;16.25;;;2.67;;
1402;SDS011;696;48.546;9.896;2023-04-12T00:36:19;7.85;;;3.03;;
1402;SDS011;696;48.546;9.896;2023-04-12T00:38:45;4.28;;;2.58;;
1402;SDS011;696;48.546;9.896;2023-04-12T00:41:11;7.85;;;2.75;;
1402;SDS011;696;48.546;9.896;2023-04-12T00:43:38;6.63;;;2.53;;
1402;SDS011;696;48.546;9.896;2023-04-12T00:46:04;5.63;;;2.55;;
1402;SDS011;696;48.546;9.896;2023-04-12T00:48:35;3.53;;;2.40;;
1402;SDS011;696;48.546;9.896;2023-04-12T00:51:01;9.98;;;2.80;;
1402;SDS011;696;48.546;9.896;2023-04-12T00:53:27;3.65;;;2.17;;
1402;SDS011;696;48.546;9.896;2023-04-12T00:55:53;3.55;;;2.25;;
1402;SDS011;696;48.546;9.896;2023-04-12T00:58:20;3.95;;;2.50;;
1402;SDS011;696;48.546;9.896;2023-04-12T01:00:48;3.92;;;2.53;;
1402;SDS011;696;48.546;9.896;2023-04-12T01:03:20;4.32;;;2.40;;
1402;SDS011;696;48.546;9.896;2023-04-12T01:11:17;8.95;;;2.33;;
1402;SDS011;696;48.546;9.896;2023-04-12T01:13:54;3.50;;;2.17;;
1402;SDS011;696;48.546;9.896;2023-04-12T01:22:01;4.07;;;2.30;;
1402;SDS011;696;48.546;9.896;2023-04-12T01:24:42;3.45;;;2.45;;
1402;SDS011;696;48.546;9.896;2023-04-12T01:27:33;5.47;;;2.17;;
1402;SDS011;696;48.546;9.896;2023-04-12T01:30:03;4.13;;;2.65;;
1402;SDS011;696;48.546;9.896;2023-04-12T01:32:31;2.97;;;2.03;;
1402;SDS011;696;48.546;9.896;2023-04-12T01:34:57;7.63;;;2.35;;
1402;SDS011;696;48.546;9.896;2023-04-12T01:37:22;6.70;;;2.63;;
1402;SDS011;696;48.546;9.896;2023-04-12T01:39:48;3.33;;;2.13;;
1402;SDS011;696;48.546;9.896;2023-04-12T01:42:18;3.85;;;2.08;;
1402;SDS011;696;48.546;9.896;2023-04-12T01:44:44;11.13;;;2.35;;
1402;SDS011;696;48.546;9.896;2023-04-12T01:47:09;3.03;;;2.15;;
1402;SDS011;696;48.546;9.896;2023-04-12T01:49:37;7.85;;;2.65;;
1402;SDS011;696;48.546;9.896;2023-04-12T01:52:11;4.10;;;1.90;;
1402;SDS011;696;48.546;9.896;2023-04-12T01:54:37;5.15;;;2.58;;
1402;SDS011;696;48.546;9.896;2023-04-12T01:57:06;4.20;;;1.98;;
1402;SDS011;696;48.546;9.896;2023-04-12T01:59:40;5.43;;;2.60;;
1402;SDS011;696;48.546;9.896;2023-04-12T02:02:06;5.53;;;2.13;;
1402;SDS011;696;48.546;9.896;2023-04-12T02:04:35;12.18;;;2.70;;
1402;SDS011;696;48.546;9.896;2023-04-12T02:07:01;4.15;;;2.80;;
1402;SDS011;696;48.546;9.896;2023-04-12T02:09:27;3.88;;;2.65;;
1402;SDS011;696;48.546;9.896;2023-04-12T02:11:52;5.63;;;2.40;;
1402;SDS011;696;48.546;9.896;2023-04-12T02:14:17;4.40;;;2.47;;
1402;SDS011;696;48.546;9.896;2023-04-12T02:16:43;5.18;;;2.72;;
1402;SDS011;696;48.546;9.896;2023-04-12T02:19:10;4.10;;;2.30;;
1402;SDS011;696;48.546;9.896;2023-04-12T02:21:39;2.92;;;2.22;;
1402;SDS011;696;48.546;9.896;2023-04-12T02:24:06;14.57;;;3.55;;
1402;SDS011;696;48.546;9.896;2023-04-12T02:26:31;5.07;;;2.85;;
1402;SDS011;696;48.546;9.896;2023-04-12T02:28:56;7.88;;;2.85;;
1402;SDS011;696;48.546;9.896;2023-04-12T02:31:22;8.20;;;3.03;;
1402;SDS011;696;48.546;9.896;2023-04-12T02:33:48;3.30;;;2.40;;
1402;SDS011;696;48.546;9.896;2023-04-12T02:36:14;6.65;;;2.88;;
1402;SDS011;696;48.546;9.896;2023-04-12T02:38:39;6.55;;;3.65;;
1402;SDS011;696;48.546;9.896;2023-04-12T02:41:04;5.82;;;3.58;;
1402;SDS011;696;48.546;9.896;2023-04-12T02:43:31;8.57;;;3.83;;
1402;SDS011;696;48.546;9.896;2023-04-12T02:45:56;7.40;;;4.15;;
1402;SDS011;696;48.546;9.896;2023-04-12T02:48:22;8.57;;;3.63;;
1402;SDS011;696;48.546;9.896;2023-04-12T02:50:47;6.70;;;3.47;;
1402;SDS011;696;48.546;9.896;2023-04-12T02:53:14;4.00;;;2.95;;
1402;SDS011;696;48.546;9.896;2023-04-12T02:55:40;7.50;;;3.83;;
1402;SDS011;696;48.546;9.896;2023-04-12T02:58:06;7.78;;;3.67;;
1402;SDS011;696;48.546;9.896;2023-04-12T03:00:31;9.20;;;4.32;;
1402;SDS011;696;48.546;9.896;2023-04-12T03:02:58;5.00;;;3.33;;
1402;SDS011;696;48.546;9.896;2023-04-12T03:05:25;6.43;;;4.18;;
1402;SDS011;696;48.546;9.896;2023-04-12T03:07:51;6.07;;;4.00;;
1402;SDS011;696;48.546;9.896;2023-04-12T03:10:16;6.55;;;4.40;;
1402;SDS011;696;48.546;9.896;2023-04-12T03:12:42;11.20;;;3.97;;
1402;SDS011;696;48.546;9.896;2023-04-12T03:15:07;7.18;;;3.80;;
1402;SDS011;696;48.546;9.896;2023-04-12T03:17:33;3.78;;;3.05;;
1402;SDS011;696;48.546;9.896;2023-04-12T03:20:02;7.68;;;4.28;;
1402;SDS011;696;48.546;9.896;2023-04-12T03:22:33;8.18;;;3.53;;
1402;SDS011;696;48.546;9.896;2023-04-12T03:24:59;8.95;;;4.05;;
1402;SDS011;696;48.546;9.896;2023-04-12T03:27:25;5.30;;;3.55;;
1402;SDS011;696;48.546;9.896;2023-04-12T03:29:51;7.60;;;3.80;;
1402;SDS011;696;48.546;9.896;2023-04-12T03:32:16;5.90;;;3.42;;
1402;SDS011;696;48.546;9.896;2023-04-12T03:34:41;6.28;;;3.78;;
1402;SDS011;696;48.546;9.896;2023-04-12T03:37:06;6.53;;;3.83;;
1402;SDS011;696;48.546;9.896;2023-04-12T03:39:32;6.88;;;3.92;;
1402;SDS011;696;48.546;9.896;2023-04-12T03:41:57;6.95;;;3.72;;
1402;SDS011;696;48.546;9.896;2023-04-12T03:44:22;5.22;;;3.58;;
1402;SDS011;696;48.546;9.896;2023-04-12T03:46:50;5.60;;;3.25;;
1402;SDS011;696;48.546;9.896;2023-04-12T03:49:15;6.22;;;3.55;;
1402;SDS011;696;48.546;9.896;2023-04-12T03:51:41;6.38;;;3.65;;
1402;SDS011;696;48.546;9.896;2023-04-12T03:54:15;6.20;;;3.83;;
1402;SDS011;696;48.546;9.896;2023-04-12T03:56:41;6.85;;;3.60;;
1402;SDS011;696;48.546;9.896;2023-04-12T03:59:06;5.38;;;4.05;;
1402;SDS011;696;48.546;9.896;2023-04-12T04:01:32;4.60;;;3.30;;
1402;SDS011;696;48.546;9.896;2023-04-12T04:04:01;5.10;;;3.28;;
1402;SDS011;696;48.546;9.896;2023-04-12T04:06:26;3.55;;;3.22;;
1402;SDS011;696;48.546;9.896;2023-04-12T04:08:54;5.10;;;3.08;;
1402;SDS011;696;48.546;9.896;2023-04-12T04:11:21;4.90;;;3.45;;
1402;SDS011;696;48.546;9.896;2023-04-12T04:13:46;3.47;;;3.10;;
1402;SDS011;696;48.546;9.896;2023-04-12T04:16:12;6.15;;;3.55;;
1402;SDS011;696;48.546;9.896;2023-04-12T04:18:39;11.68;;;3.45;;
1402;SDS011;696;48.546;9.896;2023-04-12T04:21:06;5.40;;;3.65;;
1402;SDS011;696;48.546;9.896;2023-04-12T04:23:34;5.30;;;3.47;;
1402;SDS011;696;48.546;9.896;2023-04-12T04:26:03;5.43;;;3.55;;
1402;SDS011;696;48.546;9.896;2023-04-12T04:28:34;5.80;;;4.00;;
1402;SDS011;696;48.546;9.896;2023-04-12T04:31:01;6.00;;;4.32;;
1402;SDS011;696;48.546;9.896;2023-04-12T04:33:30;6.57;;;4.57;;
1402;SDS011;696;48.546;9.896;2023-04-12T04:35:56;6.35;;;4.03;;
1402;SDS011;696;48.546;9.896;2023-04-12T04:38:22;3.78;;;3.05;;
1402;SDS011;696;48.546;9.896;2023-04-12T04:40:50;8.00;;;4.00;;
1402;SDS011;696;48.546;9.896;2023-04-12T04:43:19;5.05;;;4.10;;
1402;SDS011;696;48.546;9.896;2023-04-12T04:45:45;7.75;;;4.78;;
1402;SDS011;696;48.546;9.896;2023-04-12T04:48:14;13.13;;;4.93;;
1402;SDS011;696;48.546;9.896;2023-04-12T04:50:40;7.35;;;4.78;;
1402;SDS011;696;48.546;9.896;2023-04-12T04:53:05;7.95;;;5.45;;
1402;SDS011;696;48.546;9.896;2023-04-12T04:55:31;5.72;;;4.97;;
1402;SDS011;696;48.546;9.896;2023-04-12T04:57:56;6.72;;;5.13;;
1402;SDS011;696;48.546;9.896;2023-04-12T05:00:22;8.95;;;5.00;;
1402;SDS011;696;48.546;9.896;2023-04-12T05:02:49;7.05;;;4.68;;
1402;SDS011;696;48.546;9.896;2023-04-12T05:05:15;8.32;;;4.95;;
1402;SDS011;696;48.546;9.896;2023-04-12T05:07:41;8.70;;;4.72;;
1402;SDS011;696;48.546;9.896;2023-04-12T05:10:09;6.30;;;4.22;;
1402;SDS011;696;48.546;9.896;2023-04-12T05:12:35;5.97;;;3.38;;
1402;SDS011;696;48.546;9.896;2023-04-12T05:15:01;11.40;;;3.92;;
1402;SDS011;696;48.546;9.896;2023-04-12T05:17:27;4.55;;;3.63;;
1402;SDS011;696;48.546;9.896;2023-04-12T05:19:53;5.78;;;3.35;;
1402;SDS011;696;48.546;9.896;2023-04-12T05:22:18;6.57;;;3.90;;
1402;SDS011;696;48.546;9.896;2023-04-12T05:24:45;4.78;;;3.42;;
1402;SDS011;696;48.546;9.896;2023-04-12T05:27:14;4.82;;;3.22;;
1402;SDS011;696;48.546;9.896;2023-04-12T05:29:43;3.55;;;2.63;;
1402;SDS011;696;48.546;9.896;2023-04-12T05:32:08;4.32;;;2.95;;
1402;SDS011;696;48.546;9.896;2023-04-12T05:34:33;2.80;;;2.47;;
1402;SDS011;696;48.546;9.896;2023-04-12T05:36:59;4.22;;;2.97;;
1402;SDS011;696;48.546;9.896;2023-04-12T05:39:25;2.63;;;2.42;;
1402;SDS011;696;48.546;9.896;2023-04-12T05:41:51;2.75;;;2.17;;
1402;SDS011;696;48.546;9.896;2023-04-12T05:44:16;3.85;;;2.58;;
1402;SDS011;696;48.546;9.896;2023-04-12T05:46:42;3.28;;;2.13;;
1402;SDS011;696;48.546;9.896;2023-04-12T05:49:07;2.63;;;2.42;;
1402;SDS011;696;48.546;9.896;2023-04-12T05:51:32;3.20;;;2.50;;
1402;SDS011;696;48.546;9.896;2023-04-12T05:53:58;10.43;;;3.25;;
1402;SDS011;696;48.546;9.896;2023-04-12T05:56:23;3.75;;;3.10;;
1402;SDS011;696;48.546;9.896;2023-04-12T05:58:49;6.43;;;3.35;;
1402;SDS011;696;48.546;9.896;2023-04-12T06:01:15;3.67;;;2.97;;
1402;SDS011;696;48.546;9.896;2023-04-12T06:03:43;3.15;;;2.17;;
1402;SDS011;696;48.546;9.896;2023-04-12T06:06:09;2.40;;;2.20;;
1402;SDS011;696;48.546;9.896;2023-04-12T06:08:35;3.63;;;2.28;;
1402;SDS011;696;48.546;9.896;2023-04-12T06:11:02;4.97;;;2.30;;
1402;SDS011;696;48.546;9.896;2023-04-12T06:13:30;2.50;;;2.25;;
1402;SDS011;696;48.546;9.896;2023-04-12T06:15:56;2.95;;;2.40;;
1402;SDS011;696;48.546;9.896;2023-04-12T06:18:21;2.45;;;2.25;;
1402;SDS011;696;48.546;9.896;2023-04-12T06:20:46;4.03;;;2.75;;
1402;SDS011;696;48.546;9.896;2023-04-12T06:23:12;2.92;;;2.47;;
1402;SDS011;696;48.546;9.896;2023-04-12T06:25:37;2.90;;;2.50;;
1402;SDS011;696;48.546;9.896;2023-04-12T06:28:02;9.63;;;2.72;;
1402;SDS011;696;48.546;9.896;2023-04-12T06:30:28;3.70;;;2.83;;
1402;SDS011;696;48.546;9.896;2023-04-12T06:32:54;6.88;;;2.83;;
1402;SDS011;696;48.546;9.896;2023-04-12T06:35:19;4.03;;;3.63;;
1402;SDS011;696;48.546;9.896;2023-04-12T06:37:45;6.22;;;3.80;;
1402;SDS011;696;48.546;9.896;2023-04-12T06:40:10;6.70;;;4.32;;
1402;SDS011;696;48.546;9.896;2023-04-12T06:42:36;3.72;;;3.30;;
1402;SDS011;696;48.546;9.896;2023-04-12T06:45:02;5.18;;;3.83;;
1402;SDS011;696;48.546;9.896;2023-04-12T06:47:28;5.43;;;3.60;;
1402;SDS011;696;48.546;9.896;2023-04-12T06:49:54;4.57;;;3.10;;
1402;SDS011;696;48.546;9.896;2023-04-12T06:52:25;5.47;;;3.20;;
1402;SDS011;696;48.546;9.896;2023-04-12T06:54:50;5.40;;;3.95;;
1402;SDS011;696;48.546;9.896;2023-04-12T06:57:16;6.93;;;4.28;;
1402;SDS011;696;48.546;9.896;2023-04-12T06:59:42;4.22;;;3.78;;
1402;SDS011;696;48.546;9.896;2023-04-12T07:02:07;7.05;;;4.00;;
1402;SDS011;696;48.546;9.896;2023-04-12T07:04:32;4.50;;;3.55;;
1402;SDS011;696;48.546;9.896;2023-04-12T07:06:58;4.85;;;3.42;;
1402;SDS011;696;48.546;9.896;2023-04-12T07:09:23;6.70;;;3.33;;
1402;SDS011;696;48.546;9.896;2023-04-12T07:11:48;6.55;;;3.10;;
1402;SDS011;696;48.546;9.896;2023-04-12T07:14:15;3.22;;;2.80;;
1402;SDS011;696;48.546;9.896;2023-04-12T07:16:41;3.30;;;2.97;;
1402;SDS011;696;48.546;9.896;2023-04-12T07:19:07;7.55;;;3.45;;
1402;SDS011;696;48.546;9.896;2023-04-12T07:21:32;9.95;;;3.60;;
1402;SDS011;696;48.546;9.896;2023-04-12T07:23:58;4.57;;;2.92;;
1402;SDS011;696;48.546;9.896;2023-04-12T07:26:23;3.83;;;2.72;;
1402;SDS011;696;48.546;9.896;2023-04-12T07:28:49;3.70;;;2.20;;
1402;SDS011;696;48.546;9.896;2023-04-12T07:31:15;3.05;;;2.40;;
1402;SDS011;696;48.546;9.896;2023-04-12T07:33:40;2.63;;;2.42;;
1402;SDS011;696;48.546;9.896;2023-04-12T07:36:06;2.15;;;1.92;;
1402;SDS011;696;48.546;9.896;2023-04-12T07:38:32;2.38;;;1.95;;
1402;SDS011;696;48.546;9.896;2023-04-12T07:40:57;2.90;;;2.42;;
1402;SDS011;696;48.546;9.896;2023-04-12T07:43:22;2.10;;;1.90;;
1402;SDS011;696;48.546;9.896;2023-04-12T07:45:48;1.77;;;1.65;;
1402;SDS011;696;48.546;9.896;2023-04-12T07:48:13;3.95;;;2.45;;
1402;SDS011;696;48.546;9.896;2023-04-12T07:50:39;2.85;;;2.13;;
1402;SDS011;696;48.546;9.896;2023-04-12T07:53:24;4.72;;;2.60;;
1402;SDS011;696;48.546;9.896;2023-04-12T07:55:52;2.83;;;2.40;;
1402;SDS011;696;48.546;9.896;2023-04-12T07:58:19;3.38;;;2.30;;
1402;SDS011;696;48.546;9.896;2023-04-12T08:00:45;3.00;;;2.10;;
1402;SDS011;696;48.546;9.896;2023-04-12T08:03:11;3.30;;;2.03;;
1402;SDS011;696;48.546;9.896;2023-04-12T08:05:37;2.78;;;2.22;;
1402;SDS011;696;48.546;9.896;2023-04-12T08:08:03;3.92;;;2.25;;
1402;SDS011;696;48.546;9.896;2023-04-12T08:10:29;3.03;;;2.33;;
1402;SDS011;696;48.546;9.896;2023-04-12T08:12:55;3.40;;;2.72;;
1402;SDS011;696;48.546;9.896;2023-04-12T08:15:20;2.75;;;2.38;;
1402;SDS011;696;48.546;9.896;2023-04-12T08:17:46;7.38;;;3.13;;
1402;SDS011;696;48.546;9.896;2023-04-12T08:20:12;5.53;;;3.65;;
1402;SDS011;696;48.546;9.896;2023-04-12T08:22:39;5.40;;;3.03;;
1402;SDS011;696;48.546;9.896;2023-04-12T08:25:05;4.07;;;3.50;;
1402;SDS011;696;48.546;9.896;2023-04-12T08:27:31;6.38;;;4.43;;
1402;SDS011;696;48.546;9.896;2023-04-12T08:29:56;6.10;;;4.35;;
1402;SDS011;696;48.546;9.896;2023-04-12T08:32:21;5.22;;;4.03;;
1402;SDS011;696;48.546;9.896;2023-04-12T08:34:47;5.95;;;3.03;;
1402;SDS011;696;48.546;9.896;2023-04-12T08:37:12;3.88;;;3.10;;
1402;SDS011;696;48.546;9.896;2023-04-12T08:39:37;4.38;;;2.50;;
1402;SDS011;696;48.546;9.896;2023-04-12T08:42:03;7.57;;;2.95;;
1402;SDS011;696;48.546;9.896;2023-04-12T08:44:38;4.30;;;2.65;;
1402;SDS011;696;48.546;9.896;2023-04-12T08:47:04;5.15;;;3.75;;
1402;SDS011;696;48.546;9.896;2023-04-12T08:49:31;3.75;;;3.28;;
1402;SDS011;696;48.546;9.896;2023-04-12T08:52:07;8.23;;;2.95;;
1402;SDS011;696;48.546;9.896;2023-04-12T08:54:33;3.97;;;2.53;;
1402;SDS011;696;48.546;9.896;2023-04-12T08:57:00;4.13;;;3.15;;
1402;SDS011;696;48.546;9.896;2023-04-12T08:59:28;3.03;;;2.38;;
1402;SDS011;696;48.546;9.896;2023-04-12T09:01:54;5.30;;;1.80;;
1402;SDS011;696;48.546;9.896;2023-04-12T09:04:20;8.48;;;2.90;;
1402;SDS011;696;48.546;9.896;2023-04-12T09:06:46;4.38;;;3.35;;
1402;SDS011;696;48.546;9.896;2023-04-12T09:09:11;3.45;;;2.63;;
1402;SDS011;696;48.546;9.896;2023-04-12T09:11:37;5.38;;;2.70;;
1402;SDS011;696;48.546;9.896;2023-04-12T09:14:02;4.72;;;2.63;;
1402;SDS011;696;48.546;9.896;2023-04-12T09:16:35;3.70;;;2.58;;
1402;SDS011;696;48.546;9.896;2023-04-12T09:19:01;3.33;;;2.17;;
1402;SDS011;696;48.546;9.896;2023-04-12T09:21:27;2.50;;;2.30;;
1402;SDS011;696;48.546;9.896;2023-04-12T09:24:06;3.58;;;2.55;;
1402;SDS011;696;48.546;9.896;2023-04-12T09:26:37;3.70;;;2.15;;
1402;SDS011;696;48.546;9.896;2023-04-12T09:29:03;2.80;;;2.47;;
1402;SDS011;696;48.546;9.896;2023-04-12T09:31:29;3.75;;;2.45;;
1402;SDS011;696;48.546;9.896;2023-04-12T09:34:05;2.78;;;2.03;;
1402;SDS011;696;48.546;9.896;2023-04-12T09:36:38;4.15;;;2.83;;
1402;SDS011;696;48.546;9.896;2023-04-12T09:39:04;6.32;;;2.78;;
1402;SDS011;696;48.546;9.896;2023-04-12T09:41:30;3.17;;;2.53;;
1402;SDS011;696;48.546;9.896;2023-04-12T09:43:59;2.97;;;2.67;;
1402;SDS011;696;48.546;9.896;2023-04-12T09:46:25;3.55;;;2.70;;
1402;SDS011;696;48.546;9.896;2023-04-12T09:48:51;4.53;;;2.60;;
1402;SDS011;696;48.546;9.896;2023-04-12T09:53:58;5.15;;;2.80;;
1402;SDS011;696;48.546;9.896;2023-04-12T09:56:27;4.22;;;2.88;;
1402;SDS011;696;48.546;9.896;2023-04-12T09:59:02;2.63;;;2.33;;
1402;SDS011;696;48.546;9.896;2023-04-12T10:01:29;4.13;;;2.90;;
1402;SDS011;696;48.546;9.896;2023-04-12T10:03:58;2.63;;;2.40;;
1402;SDS011;696;48.546;9.896;2023-04-12T10:06:24;2.83;;;2.53;;
1402;SDS011;696;48.546;9.896;2023-04-12T10:08:50;2.70;;;2.47;;
1402;SDS011;696;48.546;9.896;2023-04-12T10:11:16;4.32;;;2.80;;
1402;SDS011;696;48.546;9.896;2023-04-12T10:13:41;3.13;;;2.72;;
1402;SDS011;696;48.546;9.896;2023-04-12T10:16:08;5.10;;;3.08;;
1402;SDS011;696;48.546;9.896;2023-04-12T10:18:34;4.90;;;2.78;;
1402;SDS011;696;48.546;9.896;2023-04-12T10:21:01;3.75;;;2.63;;
1402;SDS011;696;48.546;9.896;2023-04-12T10:23:27;3.30;;;2.83;;
1402;SDS011;696;48.546;9.896;2023-04-12T10:25:55;4.78;;;3.08;;
1402;SDS011;696;48.546;9.896;2023-04-12T10:28:21;3.00;;;2.65;;
1402;SDS011;696;48.546;9.896;2023-04-12T10:30:47;3.55;;;2.33;;
1402;SDS011;696;48.546;9.896;2023-04-12T10:33:15;6.75;;;3.08;;
1402;SDS011;696;48.546;9.896;2023-04-12T10:38:15;2.83;;;2.58;;
1402;SDS011;696;48.546;9.896;2023-04-12T10:43:38;4.88;;;2.83;;
1402;SDS011;696;48.546;9.896;2023-04-12T10:46:04;3.92;;;2.63;;
1402;SDS011;696;48.546;9.896;2023-04-12T10:53:53;3.75;;;2.88;;
1402;SDS011;696;48.546;9.896;2023-04-12T10:56:41;5.38;;;2.58;;
1402;SDS011;696;48.546;9.896;2023-04-12T10:59:08;2.78;;;2.33;;
1402;SDS011;696;48.546;9.896;2023-04-12T11:01:35;3.45;;;2.60;;
1402;SDS011;696;48.546;9.896;2023-04-12T11:04:04;3.58;;;2.70;;
1402;SDS011;696;48.546;9.896;2023-04-12T11:09:24;7.20;;;2.42;;
1402;SDS011;696;48.546;9.896;2023-04-12T11:12:13;3.35;;;2.42;;
1402;SDS011;696;48.546;9.896;2023-04-12T11:19:49;6.43;;;2.90;;
1402;SDS011;696;48.546;9.896;2023-04-12T11:22:17;5.68;;;2.97;;
1402;SDS011;696;48.546;9.896;2023-04-12T11:24:51;3.33;;;2.17;;
1402;SDS011;696;48.546;9.896;2023-04-12T11:27:19;4.43;;;2.60;;
1402;SDS011;696;48.546;9.896;2023-04-12T11:29:47;5.93;;;2.65;;
1402;SDS011;696;48.546;9.896;2023-04-12T11:32:13;2.92;;;2.17;;
1402;SDS011;696;48.546;9.896;2023-04-12T11:34:39;5.45;;;2.20;;
1402;SDS011;696;48.546;9.896;2023-04-12T11:37:05;4.07;;;1.92;;
1402;SDS011;696;48.546;9.896;2023-04-12T11:39:35;6.82;;;2.45;;
1402;SDS011;696;48.546;9.896;2023-04-12T11:42:02;5.97;;;2.97;;
1402;SDS011;696;48.546;9.896;2023-04-12T11:44:28;5.30;;;2.38;;
1402;SDS011;696;48.546;9.896;2023-04-12T11:46:53;4.13;;;2.42;;
1402;SDS011;696;48.546;9.896;2023-04-12T11:49:19;4.63;;;2.50;;
1402;SDS011;696;48.546;9.896;2023-04-12T11:51:46;9.65;;;2.80;;
1402;SDS011;696;48.546;9.896;2023-04-12T11:54:12;3.53;;;2.05;;
1402;SDS011;696;48.546;9.896;2023-04-12T11:56:38;6.68;;;2.55;;
1402;SDS011;696;48.546;9.896;2023-04-12T11:59:04;5.40;;;2.72;;
1402;SDS011;696;48.546;9.896;2023-04-12T12:01:29;4.07;;;2.72;;
1402;SDS011;696;48.546;9.896;2023-04-12T12:03:56;4.72;;;2.40;;
1402;SDS011;696;48.546;9.896;2023-04-12T12:06:25;10.02;;;2.60;;
1402;SDS011;696;48.546;9.896;2023-04-12T12:08:52;4.30;;;2.17;;
1402;SDS011;696;48.546;9.896;2023-04-12T12:11:19;3.13;;;1.67;;
1402;SDS011;696;48.546;9.896;2023-04-12T12:16:13;4.15;;;2.15;;
1402;SDS011;696;48.546;9.896;2023-04-12T12:18:42;7.53;;;2.42;;
1402;SDS011;696;48.546;9.896;2023-04-12T12:21:08;5.13;;;2.22;;
1402;SDS011;696;48.546;9.896;2023-04-12T12:23:36;3.30;;;1.98;;
1402;SDS011;696;48.546;9.896;2023-04-12T12:26:03;3.58;;;2.13;;
1402;SDS011;696;48.546;9.896;2023-04-12T12:28:29;5.55;;;2.00;;
1402;SDS011;696;48.546;9.896;2023-04-12T12:30:57;2.17;;;1.40;;
1402;SDS011;696;48.546;9.896;2023-04-12T12:33:23;1.77;;;1.50;;
1402;SDS011;696;48.546;9.896;2023-04-12T12:35:56;3.17;;;1.85;;
1402;SDS011;696;48.546;9.896;2023-04-12T12:38:21;2.35;;;1.70;;
1402;SDS011;696;48.546;9.896;2023-04-12T12:40:47;3.28;;;1.80;;
1402;SDS011;696;48.546;9.896;2023-04-12T12:43:19;2.58;;;1.67;;
1402;SDS011;696;48.546;9.896;2023-04-12T12:45:45;2.63;;;1.75;;
1402;SDS011;696;48.546;9.896;2023-04-12T12:48:10;5.65;;;2.00;;
1402;SDS011;696;48.546;9.896;2023-04-12T12:50:37;3.00;;;1.70;;
1402;SDS011;696;48.546;9.896;2023-04-12T12:53:03;3.53;;;1.77;;
1402;SDS011;696;48.546;9.896;2023-04-12T12:55:30;1.65;;;1.10;;
1402;SDS011;696;48.546;9.896;2023-04-12T12:57:56;2.95;;;1.23;;
1402;SDS011;696;48.546;9.896;2023-04-12T13:00:22;1.13;;;1.02;;
1402;SDS011;696;48.546;9.896;2023-04-12T13:02:49;1.63;;;0.85;;
1402;SDS011;696;48.546;9.896;2023-04-12T13:05:15;4.35;;;1.50;;
1402;SDS011;696;48.546;9.896;2023-04-12T13:07:41;5.30;;;1.10;;
1402;SDS011;696;48.546;9.896;2023-04-12T13:10:07;1.65;;;1.25;;
1402;SDS011;696;48.546;9.896;2023-04-12T13:12:33;1.88;;;1.38;;
1402;SDS011;696;48.546;9.896;2023-04-12T13:14:59;0.65;;;0.63;;
1402;SDS011;696;48.546;9.896;2023-04-12T13:17:25;1.40;;;0.77;;
1402;SDS011;696;48.546;9.896;2023-04-12T13:19:51;1.83;;;0.95;;
1402;SDS011;696;48.546;9.896;2023-04-12T13:22:17;2.05;;;0.70;;
1402;SDS011;696;48.546;9.896;2023-04-12T13:24:42;0.73;;;0.60;;
1402;SDS011;696;48.546;9.896;2023-04-12T13:27:08;1.33;;;0.75;;
1402;SDS011;696;48.546;9.896;2023-04-12T13:29:34;1.00;;;0.80;;
1402;SDS011;696;48.546;9.896;2023-04-12T13:32:00;1.65;;;0.82;;
1402;SDS011;696;48.546;9.896;2023-04-12T13:34:25;0.68;;;0.57;;
1402;SDS011;696;48.546;9.896;2023-04-12T13:36:51;2.13;;;1.00;;
1402;SDS011;696;48.546;9.896;2023-04-12T13:39:16;1.55;;;0.77;;
1402;SDS011;696;48.546;9.896;2023-04-12T13:41:42;1.13;;;0.80;;
1402;SDS011;696;48.546;9.896;2023-04-12T13:44:07;1.40;;;0.80;;
1402;SDS011;696;48.546;9.896;2023-04-12T13:46:32;1.73;;;1.00;;
1402;SDS011;696;48.546;9.896;2023-04-12T13:48:58;1.23;;;1.00;;
1402;SDS011;696;48.546;9.896;2023-04-12T13:51:23;1.30;;;1.10;;
1402;SDS011;696;48.546;9.896;2023-04-12T13:53:50;2.25;;;1.00;;
1402;SDS011;696;48.546;9.896;2023-04-12T13:56:16;1.08;;;0.80;;
1402;SDS011;696;48.546;9.896;2023-04-12T13:58:41;1.40;;;0.93;;
1402;SDS011;696;48.546;9.896;2023-04-12T14:01:07;3.30;;;1.15;;
1402;SDS011;696;48.546;9.896;2023-04-12T14:03:33;1.45;;;1.05;;
1402;SDS011;696;48.546;9.896;2023-04-12T14:05:59;0.98;;;0.73;;
1402;SDS011;696;48.546;9.896;2023-04-12T14:08:25;0.70;;;0.70;;
1402;SDS011;696;48.546;9.896;2023-04-12T14:10:51;0.90;;;0.75;;
1402;SDS011;696;48.546;9.896;2023-04-12T14:13:16;3.92;;;0.75;;
1402;SDS011;696;48.546;9.896;2023-04-12T14:15:42;0.95;;;0.80;;
1402;SDS011;696;48.546;9.896;2023-04-12T14:18:07;5.65;;;1.02;;
1402;SDS011;696;48.546;9.896;2023-04-12T14:20:32;1.42;;;0.70;;
1402;SDS011;696;48.546;9.896;2023-04-12T14:22:58;1.95;;;1.05;;
1402;SDS011;696;48.546;9.896;2023-04-12T14:25:23;1.10;;;0.98;;
1402;SDS011;696;48.546;9.896;2023-04-12T14:27:49;0.55;;;0.55;;
1402;SDS011;696;48.546;9.896;2023-04-12T14:30:14;2.10;;;0.77;;
1402;SDS011;696;48.546;9.896;2023-04-12T14:32:40;0.55;;;0.55;;
1402;SDS011;696;48.546;9.896;2023-04-12T14:35:05;2.47;;;0.70;;
1402;SDS011;696;48.546;9.896;2023-04-12T14:37:31;0.88;;;0.68;;
1402;SDS011;696;48.546;9.896;2023-04-12T14:39:57;1.35;;;0.68;;
1402;SDS011;696;48.546;9.896;2023-04-12T14:42:22;0.60;;;0.60;;
1402;SDS011;696;48.546;9.896;2023-04-12T14:44:47;1.20;;;0.65;;
1402;SDS011;696;48.546;9.896;2023-04-12T14:47:13;1.58;;;0.63;;
1402;SDS011;696;48.546;9.896;2023-04-12T14:49:38;1.00;;;0.70;;
1402;SDS011;696;48.546;9.896;2023-04-12T14:52:04;0.52;;;0.50;;
1402;SDS011;696;48.546;9.896;2023-04-12T14:54:30;1.00;;;0.60;;
1402;SDS011;696;48.546;9.896;2023-04-12T14:56:55;0.40;;;0.40;;
1402;SDS011;696;48.546;9.896;2023-04-12T14:59:21;0.55;;;0.55;;
1402;SDS011;696;48.546;9.896;2023-04-12T15:01:46;0.65;;;0.52;;
1402;SDS011;696;48.546;9.896;2023-04-12T15:04:12;1.50;;;0.60;;
1402;SDS011;696;48.546;9.896;2023-04-12T15:06:37;1.02;;;0.65;;
1402;SDS011;696;48.546;9.896;2023-04-12T15:09:06;0.60;;;0.60;;
1402;SDS011;696;48.546;9.896;2023-04-12T15:11:33;1.48;;;0.82;;
1402;SDS011;696;48.546;9.896;2023-04-12T15:14:00;0.50;;;0.50;;
1402;SDS011;696;48.546;9.896;2023-04-12T15:16:30;0.45;;;0.45;;
1402;SDS011;696;48.546;9.896;2023-04-12T15:18:56;0.55;;;0.55;;
1402;SDS011;696;48.546;9.896;2023-04-12T15:21:27;0.75;;;0.50;;
1402;SDS011;696;48.546;9.896;2023-04-12T15:23:52;0.75;;;0.60;;
1402;SDS011;696;48.546;9.896;2023-04-12T15:26:18;1.40;;;0.60;;
1402;SDS011;696;48.546;9.896;2023-04-12T15:28:43;0.50;;;0.50;;
1402;SDS011;696;48.546;9.896;2023-04-12T15:31:08;0.40;;;0.40;;
1402;SDS011;696;48.546;9.896;2023-04-12T15:33:35;3.22;;;0.60;;
1402;SDS011;696;48.546;9.896;2023-04-12T15:36:01;1.75;;;0.80;;
1402;SDS011;696;48.546;9.896;2023-04-12T15:38:39;0.68;;;0.57;;
1402;SDS011;696;48.546;9.896;2023-04-12T15:41:05;0.43;;;0.43;;
1402;SDS011;696;48.546;9.896;2023-04-12T15:43:31;0.60;;;0.50;;
1402;SDS011;696;48.546;9.896;2023-04-12T15:45:56;0.80;;;0.55;;
1402;SDS011;696;48.546;9.896;2023-04-12T15:48:23;1.35;;;0.73;;
1402;SDS011;696;48.546;9.896;2023-04-12T15:50:49;1.40;;;0.57;;
1402;SDS011;696;48.546;9.896;2023-04-12T15:53:18;0.65;;;0.65;;
1402;SDS011;696;48.546;9.896;2023-04-12T15:55:45;0.70;;;0.60;;
1402;SDS011;696;48.546;9.896;2023-04-12T15:58:11;0.82;;;0.60;;
1402;SDS011;696;48.546;9.896;2023-04-12T16:00:37;1.23;;;0.70;;
1402;SDS011;696;48.546;9.896;2023-04-12T16:03:03;0.70;;;0.70;;